Twin Springs, Nevada Weather observations

Data are for observation ending at time listed.
 Day   Time    Ave.   Ave.  Ave.  Vector   Max.   Stn.    Total    Solar   Ave.  
  of    of     Air    Rel.  Wind   Wind    Wind   Baro.  Precip.   Rad.    Soil  
Year   Day     Temp.  Hum.  Speed  Dir.    Gust   Pres.                    Temp. 
2015   (PST)    F      %     mph   deg.    mph     mb.     in.     W/m2     F   
------------------------------------------------------------------------------
  86   17:00   77.3    12    6.4   131     16.9    846     0.00     290    66.0
  86   18:00   75.0    12    4.1   269      9.8    846     0.00      70    66.6
  86   19:00   68.7    14    2.7   225      7.5    846     0.00       1    66.3
  86   20:00   66.6    15    5.4   175      9.6    846     0.00       0    65.2
  86   21:00   65.6    16    8.3   168     15.9    847     0.00       0    64.0
  86   22:00   63.5    17    6.5   140     15.2    847     0.00       0    63.0
  86   23:00   55.5    23    2.3   342      5.8    847     0.00       0    62.2
  87    0:00   50.7    28    3.5    14      8.8    847     0.00       0    61.2
  87    1:00   45.8    33    2.1    80      5.0    847     0.00       0    60.1
  87    2:00   43.6    38    2.7   333      5.1    847     0.00       0    59.0
  87    3:00   44.3    37    2.0   327      4.1    847     0.00       0    57.9
  87    4:00   39.8    47    2.8   314      5.8    847     0.00       0    57.0
  87    5:00   37.7    49    3.5   338      6.6    847     0.00       0    56.0
  87    6:00   35.1    52    4.2   329      7.5    848     0.00       4    55.2
  87    7:00   39.0    45    4.9   322      8.4    848     0.00     149    54.3
  87    8:00   47.8    35    6.1   310     10.2    848     0.00     379    53.6
  87    9:00   58.7    24    5.2   329      8.4    848     0.00     594    53.6
  87   10:00   70.7    16    4.7   267     11.0    848     0.00     772    54.6
  87   11:00   74.3    11    5.0   299     13.4    848     0.00     902    56.7
  87   12:00   76.0     9    4.3   322     13.1    847     0.00     961    59.3
  87   13:00   76.6     9    5.0   354     15.1    847     0.00     943    61.1
  87   14:00   78.7     8    4.3   275     14.6    846     0.00     859    63.3
  87   15:00   79.3     6    5.3   218     14.3    845     0.00     719    65.8
  87   16:00   78.9     6    7.6   237     18.5    845     0.00     533    67.1

Return to Twin Springs, Nevada graphs page.


Western Regional Climate Center,wrcc@dri.edu